createdAt,value
2019-03-03T00:00:34.311Z,5.13
2019-03-03T00:03:02.884Z,4.33
2019-03-03T00:05:31.341Z,4.43
2019-03-03T00:07:59.817Z,4.80
2019-03-03T00:10:28.239Z,4.30
2019-03-03T00:12:56.653Z,4.27
2019-03-03T00:15:25.114Z,4.70
2019-03-03T00:17:53.954Z,4.20
2019-03-03T00:20:22.507Z,3.90
2019-03-03T00:22:51.041Z,4.37
2019-03-03T00:25:19.471Z,4.10
2019-03-03T00:27:47.944Z,4.27
2019-03-03T00:30:20.347Z,4.00
2019-03-03T00:32:48.886Z,4.23
2019-03-03T00:35:17.499Z,3.63
2019-03-03T00:37:47.607Z,3.30
2019-03-03T00:40:30.145Z,3.90
2019-03-03T00:43:15.726Z,3.70
2019-03-03T00:46:02.161Z,3.60
2019-03-03T00:48:34.998Z,4.13
2019-03-03T00:51:14.326Z,3.87
2019-03-03T00:53:44.369Z,3.70
2019-03-03T00:56:30.997Z,4.10
2019-03-03T00:59:13.420Z,4.03
2019-03-03T01:01:46.804Z,3.40
2019-03-03T01:04:22.533Z,3.93
2019-03-03T01:06:55.843Z,4.23
2019-03-03T01:09:41.657Z,4.00
2019-03-03T01:12:18.167Z,3.93
2019-03-03T01:15:03.192Z,3.97
2019-03-03T01:17:42.497Z,3.40
2019-03-03T01:20:13.144Z,3.37
2019-03-03T01:22:59.564Z,3.33
2019-03-03T01:25:27.983Z,3.50
2019-03-03T01:27:56.687Z,3.80
2019-03-03T01:30:25.169Z,3.43
2019-03-03T01:32:53.649Z,4.00
2019-03-03T01:35:22.231Z,3.73
2019-03-03T01:37:50.825Z,3.60
2019-03-03T01:40:19.258Z,3.70
2019-03-03T01:42:47.755Z,3.70
2019-03-03T01:45:16.345Z,3.67
2019-03-03T01:47:45.030Z,3.47
2019-03-03T01:50:14.186Z,3.97
2019-03-03T01:52:42.877Z,3.50
2019-03-03T01:55:12.848Z,3.43
2019-03-03T01:57:41.520Z,3.40
2019-03-03T02:00:27.243Z,3.43
2019-03-03T02:02:57.031Z,3.03
2019-03-03T02:05:25.611Z,3.33
2019-03-03T02:07:54.236Z,3.53
2019-03-03T02:10:23.880Z,3.37
2019-03-03T02:12:52.327Z,3.27
2019-03-03T02:15:21.187Z,3.47
2019-03-03T02:17:49.931Z,2.90
2019-03-03T02:20:18.764Z,2.80
2019-03-03T02:22:47.163Z,3.23
2019-03-03T02:25:16.141Z,2.80
2019-03-03T02:27:44.559Z,2.77
2019-03-03T02:30:20.934Z,3.13
2019-03-03T02:32:49.397Z,2.93
2019-03-03T02:35:18.094Z,3.30
2019-03-03T02:37:47.077Z,3.00
2019-03-03T02:40:20.111Z,3.30
2019-03-03T02:42:48.509Z,2.77
2019-03-03T02:45:17.360Z,3.23
2019-03-03T02:47:45.756Z,3.67
2019-03-03T02:50:17.404Z,3.93
2019-03-03T02:52:46.085Z,3.43
2019-03-03T02:55:17.953Z,2.87
2019-03-03T02:57:46.493Z,3.10
2019-03-03T03:00:22.442Z,3.43
2019-03-03T03:02:52.707Z,4.23
2019-03-03T03:05:30.499Z,3.33
2019-03-03T03:08:19.357Z,2.93
2019-03-03T03:10:49.393Z,3.20
2019-03-03T03:13:37.878Z,3.40
2019-03-03T03:16:26.333Z,3.33
2019-03-03T03:19:13.127Z,3.00
2019-03-03T03:21:46.297Z,3.47
2019-03-03T03:24:16.650Z,3.13
2019-03-03T03:26:52.926Z,3.33
2019-03-03T03:29:29.030Z,2.80
2019-03-03T03:31:59.079Z,3.00
2019-03-03T03:34:35.099Z,3.30
2019-03-03T03:37:08.129Z,2.80
2019-03-03T03:39:38.506Z,2.77
2019-03-03T03:42:11.937Z,3.53
2019-03-03T03:44:58.581Z,3.43
2019-03-03T03:47:37.351Z,3.37
2019-03-03T03:50:10.090Z,3.03
2019-03-03T03:52:43.405Z,3.47
2019-03-03T03:55:29.916Z,3.47
2019-03-03T03:58:18.731Z,4.77
2019-03-03T04:00:58.105Z,3.97
2019-03-03T04:03:34.776Z,3.50
2019-03-03T04:06:11.061Z,3.93
2019-03-03T04:08:41.375Z,3.17
2019-03-03T04:11:14.138Z,3.87
2019-03-03T04:13:44.216Z,3.10
2019-03-03T04:16:23.102Z,3.37
2019-03-03T04:19:01.926Z,3.40
2019-03-03T04:21:34.718Z,3.50
2019-03-03T04:24:20.789Z,3.53
2019-03-03T04:26:56.499Z,3.17
2019-03-03T04:29:32.885Z,3.90
2019-03-03T04:32:12.423Z,3.33
2019-03-03T04:34:45.635Z,3.53
2019-03-03T04:37:15.993Z,4.10
2019-03-03T04:39:49.077Z,4.20
2019-03-03T04:42:19.401Z,4.07
2019-03-03T04:44:58.920Z,3.67
2019-03-03T04:47:41.536Z,3.70
2019-03-03T04:50:11.727Z,3.80
2019-03-03T04:52:44.830Z,4.10
2019-03-03T04:55:30.241Z,3.80
2019-03-03T04:58:03.424Z,4.83
2019-03-03T05:00:50.011Z,4.70
2019-03-03T05:03:20.163Z,5.50
2019-03-03T05:06:06.285Z,4.57
2019-03-03T05:08:36.535Z,4.93
2019-03-03T05:11:06.915Z,4.83
2019-03-03T05:13:36.996Z,5.00
2019-03-03T05:16:16.316Z,4.70
2019-03-03T05:18:46.651Z,5.43
2019-03-03T05:21:15.220Z,4.87
2019-03-03T05:23:43.666Z,5.03
2019-03-03T05:26:12.087Z,4.83
2019-03-03T05:28:40.525Z,4.40
2019-03-03T05:31:08.945Z,4.37
2019-03-03T05:33:37.420Z,4.30
2019-03-03T05:36:05.955Z,3.77
2019-03-03T05:38:34.390Z,4.10
2019-03-03T05:41:02.796Z,4.00
2019-03-03T05:43:31.257Z,4.80
2019-03-03T05:45:59.655Z,3.73
2019-03-03T05:48:28.068Z,4.20
2019-03-03T05:50:56.515Z,3.77
2019-03-03T05:53:24.920Z,3.93
2019-03-03T05:55:53.459Z,4.20
2019-03-03T05:58:21.975Z,3.73
2019-03-03T06:00:50.385Z,4.10
2019-03-03T06:03:18.905Z,4.50
2019-03-03T06:05:47.526Z,3.80
2019-03-03T06:08:15.958Z,4.00
2019-03-03T06:10:44.363Z,3.53
2019-03-03T06:13:12.847Z,3.63
2019-03-03T06:15:41.298Z,3.13
2019-03-03T06:18:09.725Z,3.63
2019-03-03T06:20:39.717Z,3.47
2019-03-03T06:23:08.137Z,3.27
2019-03-03T06:25:36.661Z,3.10
2019-03-03T06:28:05.069Z,4.27
2019-03-03T06:30:33.517Z,3.13
2019-03-03T06:33:02.010Z,3.60
2019-03-03T06:35:30.426Z,3.17
2019-03-03T06:37:58.987Z,3.73
2019-03-03T06:40:27.395Z,3.53
2019-03-03T06:42:55.798Z,3.27
2019-03-03T06:45:24.325Z,3.93
2019-03-03T06:47:52.731Z,3.20
2019-03-03T06:50:21.278Z,3.50
2019-03-03T06:52:49.731Z,3.43
2019-03-03T06:55:18.180Z,3.60
2019-03-03T06:57:46.591Z,3.57
2019-03-03T07:00:16.985Z,3.47
2019-03-03T07:02:45.667Z,3.97
2019-03-03T07:05:14.084Z,4.27
2019-03-03T07:07:42.558Z,3.53
2019-03-03T07:10:13.212Z,3.20
2019-03-03T07:12:41.734Z,3.37
2019-03-03T07:15:12.903Z,3.80
2019-03-03T07:17:41.425Z,3.70
2019-03-03T07:20:11.619Z,4.47
2019-03-03T07:22:40.054Z,3.23
2019-03-03T07:25:13.860Z,3.90
2019-03-03T07:27:42.514Z,3.73
2019-03-03T07:30:15.461Z,3.80
2019-03-03T07:33:01.651Z,6.33
2019-03-03T07:35:30.255Z,4.07
2019-03-03T07:37:58.686Z,4.10
2019-03-03T07:40:27.374Z,3.50
2019-03-03T07:42:55.857Z,3.77
2019-03-03T07:45:24.407Z,3.53
2019-03-03T07:47:52.872Z,3.87
2019-03-03T07:50:21.294Z,3.20
2019-03-03T07:52:49.958Z,4.13
2019-03-03T07:55:18.371Z,3.40
2019-03-03T07:57:47.000Z,3.80
2019-03-03T08:00:16.723Z,3.20
2019-03-03T08:02:45.191Z,3.83
2019-03-03T08:05:13.924Z,3.23
2019-03-03T08:07:42.541Z,3.93
2019-03-03T08:10:12.751Z,3.37
2019-03-03T08:12:41.422Z,3.63
2019-03-03T08:15:12.328Z,3.40
2019-03-03T08:17:40.785Z,4.90
2019-03-03T08:22:30.194Z,4.20
2019-03-03T08:24:58.603Z,4.00
2019-03-03T08:27:27.064Z,3.53
2019-03-03T08:29:55.517Z,4.73
2019-03-03T08:32:24.182Z,4.53
2019-03-03T08:34:52.663Z,3.87
2019-03-03T08:37:21.105Z,3.37
2019-03-03T08:39:49.568Z,3.90
2019-03-03T08:42:35.086Z,3.93
2019-03-03T08:45:12.299Z,3.30
2019-03-03T08:47:52.968Z,3.53
2019-03-03T08:50:26.583Z,3.63
2019-03-03T08:52:56.641Z,4.13
2019-03-03T08:55:32.925Z,3.50
2019-03-03T08:58:08.711Z,3.37
2019-03-03T09:00:44.357Z,3.87
2019-03-03T09:03:17.106Z,3.43
2019-03-03T09:05:50.630Z,3.77
2019-03-03T09:08:39.228Z,4.03
2019-03-03T09:11:27.772Z,3.87
2019-03-03T09:14:00.817Z,3.50
2019-03-03T09:16:48.336Z,4.07
2019-03-03T09:19:37.019Z,3.37
2019-03-03T09:22:22.591Z,3.47
2019-03-03T09:24:56.115Z,3.30
2019-03-03T09:27:26.189Z,4.03
2019-03-03T09:29:56.335Z,3.10
2019-03-03T09:32:44.769Z,3.20
2019-03-03T09:35:33.325Z,2.67
2019-03-03T09:38:15.517Z,3.13
2019-03-03T09:40:49.169Z,3.00
2019-03-03T09:43:19.567Z,2.90
2019-03-03T09:45:58.740Z,3.33
2019-03-03T09:48:45.390Z,3.03
2019-03-03T09:51:15.530Z,3.23
2019-03-03T09:53:45.717Z,3.67
2019-03-03T09:56:21.502Z,3.30
2019-03-03T09:58:54.445Z,3.13
2019-03-03T10:01:30.519Z,3.10
2019-03-03T10:04:10.054Z,3.27
2019-03-03T10:06:42.806Z,2.60
2019-03-03T10:09:28.759Z,3.30
2019-03-03T10:12:08.047Z,3.07
2019-03-03T10:14:38.277Z,2.50
2019-03-03T10:17:11.318Z,2.70
2019-03-03T10:19:57.664Z,3.37
2019-03-03T10:22:27.766Z,3.53
2019-03-03T10:25:00.988Z,3.40
2019-03-03T10:27:49.761Z,2.83
2019-03-03T10:30:39.607Z,2.90
2019-03-03T10:33:12.777Z,2.77
2019-03-03T10:35:42.836Z,3.07
2019-03-03T10:38:21.882Z,2.80
2019-03-03T10:40:51.952Z,2.73
2019-03-03T10:43:22.165Z,2.67
2019-03-03T10:45:52.230Z,2.50
2019-03-03T10:48:27.947Z,2.70
2019-03-03T10:50:58.213Z,2.60
2019-03-03T10:53:34.761Z,2.23
2019-03-03T10:56:10.832Z,2.83
2019-03-03T10:58:41.247Z,2.90
2019-03-03T11:01:17.503Z,2.27
2019-03-03T11:03:47.825Z,2.03
2019-03-03T11:06:20.826Z,2.50
2019-03-03T11:09:00.275Z,2.50
2019-03-03T11:11:30.536Z,2.83
2019-03-03T11:14:03.755Z,2.40
2019-03-03T11:16:52.534Z,2.60
2019-03-03T11:19:28.434Z,2.23
2019-03-03T11:22:04.551Z,2.50
2019-03-03T11:24:49.763Z,2.30
2019-03-03T11:27:31.915Z,2.50
2019-03-03T11:30:11.224Z,2.37
2019-03-03T11:32:47.152Z,2.70
2019-03-03T11:35:33.499Z,2.30
2019-03-03T11:38:12.283Z,2.50
2019-03-03T11:40:51.484Z,2.03
2019-03-03T11:43:38.020Z,2.23
2019-03-03T11:46:26.411Z,2.10
2019-03-03T11:49:14.936Z,1.90
2019-03-03T11:51:45.216Z,2.07
2019-03-03T11:54:21.350Z,2.40
2019-03-03T11:56:57.614Z,2.33
2019-03-03T11:59:44.107Z,2.77
2019-03-03T12:02:17.000Z,2.47
2019-03-03T12:04:49.787Z,2.27
2019-03-03T12:07:36.094Z,2.80
2019-03-03T12:10:08.821Z,2.20
2019-03-03T12:12:54.356Z,2.57
2019-03-03T12:15:40.963Z,3.37
2019-03-03T12:18:27.557Z,4.70
2019-03-03T12:20:57.867Z,7.87
2019-03-03T12:23:44.358Z,2.43
2019-03-03T12:26:29.814Z,2.40
2019-03-03T12:29:16.172Z,2.17
2019-03-03T12:31:52.452Z,2.13
2019-03-03T12:34:34.709Z,2.20
2019-03-03T12:37:14.494Z,2.13
2019-03-03T12:39:44.685Z,2.13
2019-03-03T12:42:21.157Z,2.30
2019-03-03T12:45:09.338Z,2.73
2019-03-03T12:47:51.876Z,1.93
2019-03-03T12:50:38.520Z,2.07
2019-03-03T12:53:26.666Z,1.80
2019-03-03T12:55:59.917Z,2.23
2019-03-03T12:58:33.263Z,2.27
2019-03-03T13:01:18.891Z,2.00
2019-03-03T13:04:05.395Z,1.90
2019-03-03T13:06:38.029Z,2.30
2019-03-03T13:09:09.135Z,2.80
2019-03-03T13:11:39.478Z,2.80
2019-03-03T13:14:15.669Z,2.57
2019-03-03T13:16:56.062Z,2.87
2019-03-03T13:19:29.175Z,2.90
2019-03-03T13:22:01.707Z,2.50
2019-03-03T13:24:38.123Z,2.47
2019-03-03T13:27:25.086Z,2.03
2019-03-03T13:30:00.868Z,2.60
2019-03-03T13:32:43.728Z,2.97
2019-03-03T13:35:30.927Z,2.40
2019-03-03T13:38:01.237Z,2.33
2019-03-03T13:40:31.403Z,2.47
2019-03-03T13:42:59.809Z,2.33
2019-03-03T13:45:30.971Z,1.87
2019-03-03T13:47:59.580Z,2.30
2019-03-03T13:50:28.343Z,1.83
2019-03-03T13:52:57.052Z,2.83
2019-03-03T13:55:25.958Z,1.73
2019-03-03T13:57:54.850Z,1.90
2019-03-03T14:00:23.833Z,2.20
2019-03-03T14:02:52.488Z,1.90
2019-03-03T14:05:22.444Z,2.60
2019-03-03T14:07:51.843Z,2.20
2019-03-03T14:10:20.604Z,3.50
2019-03-03T14:12:49.530Z,2.50
2019-03-03T14:15:19.787Z,2.00
2019-03-03T14:17:48.811Z,2.27
2019-03-03T14:20:19.689Z,1.80
2019-03-03T14:22:48.535Z,1.60
2019-03-03T14:25:17.599Z,1.97
2019-03-03T14:27:46.317Z,2.33
2019-03-03T14:30:20.206Z,1.87
2019-03-03T14:32:48.631Z,1.63
2019-03-03T14:35:17.594Z,1.87
2019-03-03T14:37:46.444Z,1.73
2019-03-03T14:40:17.846Z,1.90
2019-03-03T14:42:46.537Z,2.20
2019-03-03T14:45:21.799Z,2.20
2019-03-03T14:47:50.614Z,1.50
2019-03-03T14:50:22.067Z,1.93
2019-03-03T14:52:53.640Z,2.43
2019-03-03T14:55:22.141Z,2.10
2019-03-03T14:57:50.831Z,2.27
2019-03-03T15:00:23.530Z,2.23
2019-03-03T15:02:53.064Z,2.67
2019-03-03T15:05:22.185Z,2.30
2019-03-03T15:07:50.852Z,2.17
2019-03-03T15:10:19.680Z,2.47
2019-03-03T15:12:48.228Z,2.20
2019-03-03T15:15:22.889Z,2.20
2019-03-03T15:17:51.333Z,3.23
2019-03-03T15:20:19.967Z,2.90
2019-03-03T15:22:48.760Z,2.30
2019-03-03T15:25:17.351Z,2.83
2019-03-03T15:27:46.158Z,3.20
2019-03-03T15:30:19.654Z,3.23
2019-03-03T15:32:51.460Z,2.70
2019-03-03T15:35:20.433Z,2.60
2019-03-03T15:37:48.932Z,2.67
2019-03-03T15:40:25.223Z,2.30
2019-03-03T15:42:54.084Z,3.10
2019-03-03T15:45:24.221Z,3.10
2019-03-03T15:47:53.029Z,2.80
2019-03-03T15:50:22.737Z,2.53
2019-03-03T15:52:51.415Z,2.50
2019-03-03T15:55:22.660Z,2.73
2019-03-03T15:57:51.190Z,3.10
2019-03-03T16:00:28.735Z,2.77
2019-03-03T16:02:57.238Z,9.90
2019-03-03T16:05:25.801Z,5.43
2019-03-03T16:07:54.397Z,3.70
2019-03-03T16:10:24.342Z,2.70
2019-03-03T16:12:53.024Z,2.70
2019-03-03T16:15:21.581Z,2.93
2019-03-03T16:17:50.321Z,2.43
2019-03-03T16:20:20.451Z,2.30
2019-03-03T16:22:48.886Z,2.20
2019-03-03T16:25:20.471Z,2.00
2019-03-03T16:27:49.119Z,2.60
2019-03-03T16:30:20.599Z,2.20
2019-03-03T16:32:49.126Z,2.30
2019-03-03T16:35:18.055Z,2.23
2019-03-03T16:37:46.638Z,1.87
2019-03-03T16:40:22.994Z,2.30
2019-03-03T16:42:51.384Z,2.30
2019-03-03T16:45:20.528Z,2.60
2019-03-03T16:47:49.180Z,3.10
2019-03-03T16:50:19.863Z,3.10
2019-03-03T16:52:48.675Z,2.50
2019-03-03T16:55:18.406Z,2.40
2019-03-03T16:57:47.202Z,2.20
2019-03-03T17:00:29.045Z,2.33
2019-03-03T17:02:57.871Z,2.97
2019-03-03T17:05:27.726Z,2.40
2019-03-03T17:07:56.296Z,2.40
2019-03-03T17:10:24.841Z,3.40
2019-03-03T17:12:53.351Z,3.37
2019-03-03T17:15:24.064Z,2.77
2019-03-03T17:17:52.806Z,2.40
2019-03-03T17:20:21.258Z,2.40
2019-03-03T17:22:49.848Z,3.03
2019-03-03T17:25:28.984Z,2.83
2019-03-03T17:27:57.559Z,2.80
2019-03-03T17:30:29.178Z,2.90
2019-03-03T17:32:57.732Z,2.40
2019-03-03T17:35:26.266Z,2.70
2019-03-03T17:37:56.570Z,2.67
2019-03-03T17:40:28.871Z,3.17
2019-03-03T17:42:57.459Z,3.30
2019-03-03T17:45:26.003Z,2.93
2019-03-03T17:47:54.487Z,2.87
2019-03-03T17:50:30.470Z,2.73
2019-03-03T17:52:59.064Z,2.60
2019-03-03T17:55:27.755Z,2.53
2019-03-03T17:57:56.674Z,2.20
2019-03-03T18:00:28.017Z,2.40
2019-03-03T18:02:56.825Z,2.47
2019-03-03T18:05:25.468Z,2.73
2019-03-03T18:07:54.438Z,2.60
2019-03-03T18:10:23.245Z,2.27
2019-03-03T18:12:51.937Z,2.87
2019-03-03T18:15:21.787Z,2.20
2019-03-03T18:17:50.759Z,2.50
2019-03-03T18:20:21.253Z,2.30
2019-03-03T18:22:50.041Z,2.50
2019-03-03T18:25:19.912Z,2.87
2019-03-03T18:27:48.646Z,2.90
2019-03-03T18:30:19.405Z,2.97
2019-03-03T18:32:47.974Z,3.33
2019-03-03T18:35:16.393Z,2.73
2019-03-03T18:37:44.874Z,3.10
2019-03-03T18:40:16.488Z,3.03
2019-03-03T18:42:45.228Z,2.87
2019-03-03T18:45:15.887Z,3.13
2019-03-03T18:47:44.482Z,6.50
2019-03-03T18:50:18.292Z,5.87
2019-03-03T18:52:47.337Z,7.00
2019-03-03T18:55:16.527Z,5.13
2019-03-03T18:57:45.363Z,3.90
2019-03-03T19:00:16.221Z,2.70
2019-03-03T19:02:44.988Z,2.57
2019-03-03T19:05:13.917Z,3.27
2019-03-03T19:07:42.500Z,2.60
2019-03-03T19:10:16.808Z,3.37
2019-03-03T19:12:45.857Z,2.90
2019-03-03T19:15:19.232Z,2.73
2019-03-03T19:17:47.919Z,2.70
2019-03-03T19:20:21.790Z,3.50
2019-03-03T19:22:50.842Z,3.00
2019-03-03T19:25:20.058Z,2.87
2019-03-03T19:27:48.676Z,2.97
2019-03-03T19:30:19.062Z,2.90
2019-03-03T19:32:50.752Z,3.10
2019-03-03T19:35:19.537Z,2.73
2019-03-03T19:37:48.407Z,3.17
2019-03-03T19:40:17.359Z,3.03
2019-03-03T19:42:45.905Z,3.17
2019-03-03T19:45:26.546Z,2.73
2019-03-03T19:47:55.415Z,3.60
2019-03-03T19:50:24.265Z,3.17
2019-03-03T19:52:52.741Z,3.30
2019-03-03T19:55:23.227Z,3.10
2019-03-03T19:57:52.131Z,3.50
2019-03-03T20:00:24.097Z,3.13
2019-03-03T20:02:53.045Z,3.43
2019-03-03T20:05:21.492Z,3.93
2019-03-03T20:07:50.314Z,3.20
2019-03-03T20:10:18.829Z,3.03
2019-03-03T20:12:47.602Z,2.73
2019-03-03T20:15:16.099Z,4.40
2019-03-03T20:17:46.595Z,2.83
2019-03-03T20:20:17.515Z,2.30
2019-03-03T20:22:46.047Z,3.10
2019-03-03T20:25:15.330Z,3.10
2019-03-03T20:27:44.940Z,3.00
2019-03-03T20:30:21.938Z,3.17
2019-03-03T20:32:50.566Z,3.20
2019-03-03T20:35:19.007Z,4.23
2019-03-03T20:37:47.666Z,3.60
2019-03-03T20:40:18.304Z,2.80
2019-03-03T20:42:47.200Z,3.10
2019-03-03T20:45:21.807Z,3.00
2019-03-03T20:47:50.688Z,2.87
2019-03-03T20:50:20.790Z,3.50
2019-03-03T20:52:50.170Z,2.33
2019-03-03T20:55:21.247Z,2.53
2019-03-03T20:57:49.926Z,2.63
2019-03-03T21:00:30.175Z,2.77
2019-03-03T21:02:58.798Z,3.03
2019-03-03T21:05:27.382Z,2.50
2019-03-03T21:07:56.095Z,2.90
2019-03-03T21:10:29.570Z,2.80
2019-03-03T21:12:58.179Z,2.43
2019-03-03T21:15:26.941Z,2.47
2019-03-03T21:17:55.679Z,2.87
2019-03-03T21:20:24.317Z,2.30
2019-03-03T21:22:52.710Z,2.33
2019-03-03T21:25:21.396Z,2.50
2019-03-03T21:27:49.903Z,2.20
2019-03-03T21:30:23.283Z,2.10
2019-03-03T21:32:52.291Z,2.93
2019-03-03T21:35:21.390Z,2.13
2019-03-03T21:37:50.152Z,2.50
2019-03-03T21:40:26.190Z,2.57
2019-03-03T21:42:54.621Z,1.93
2019-03-03T21:45:24.506Z,2.17
2019-03-03T21:47:53.152Z,2.60
2019-03-03T21:50:26.022Z,1.90
2019-03-03T21:52:54.487Z,2.07
2019-03-03T21:55:23.249Z,2.10
2019-03-03T21:57:51.747Z,2.27
2019-03-03T22:00:28.765Z,2.30
2019-03-03T22:02:58.065Z,2.43
2019-03-03T22:05:26.692Z,2.47
2019-03-03T22:07:56.826Z,2.40
2019-03-03T22:10:32.424Z,2.60
2019-03-03T22:13:06.214Z,2.90
2019-03-03T22:15:34.666Z,2.23
2019-03-03T22:18:03.062Z,2.77
2019-03-03T22:20:31.775Z,2.30
2019-03-03T22:23:01.595Z,1.97
2019-03-03T22:25:30.084Z,2.47
2019-03-03T22:27:58.612Z,2.87
2019-03-03T22:30:27.101Z,2.70
2019-03-03T22:32:55.844Z,3.13
2019-03-03T22:35:24.483Z,2.90
2019-03-03T22:37:53.186Z,3.27
2019-03-03T22:40:23.349Z,3.77
2019-03-03T22:42:52.021Z,4.40
2019-03-03T22:45:21.667Z,4.80
2019-03-03T22:47:50.240Z,4.53
2019-03-03T22:50:20.511Z,4.30
2019-03-03T22:52:49.162Z,3.63
2019-03-03T22:55:21.679Z,3.13
2019-03-03T22:57:50.411Z,3.20
2019-03-03T23:00:53.769Z,2.90
2019-03-03T23:03:31.646Z,3.40
2019-03-03T23:06:27.325Z,2.80
2019-03-03T23:09:16.836Z,2.87
2019-03-03T23:12:03.579Z,3.10
2019-03-03T23:14:35.050Z,2.80
2019-03-03T23:17:15.482Z,2.60
2019-03-03T23:19:56.345Z,3.40
2019-03-03T23:22:42.911Z,3.20
2019-03-03T23:25:29.418Z,3.23
2019-03-03T23:27:57.892Z,3.37
2019-03-03T23:30:26.606Z,4.00
2019-03-03T23:32:55.334Z,3.43
2019-03-03T23:35:24.019Z,3.10
2019-03-03T23:37:52.682Z,3.50
2019-03-03T23:40:21.437Z,3.70
2019-03-03T23:42:50.058Z,4.00
2019-03-03T23:45:18.716Z,3.50
2019-03-03T23:47:47.431Z,3.83
2019-03-03T23:50:16.086Z,3.40
2019-03-03T23:52:44.796Z,3.40
2019-03-03T23:55:14.179Z,3.53
2019-03-03T23:57:42.899Z,3.30
